Time;durP1;ratioP1;P1;durP2;ratioP2;P2;SDS_P1;SDS_P2;PMS_P1;PMS_P2;Temp;Humidity;BMP_temperature;BMP_pressure;BME280_temperature;BME280_humidity;BME280_pressure;Samples;Min_cycle;Max_cycle;Signal;HPM_P1;HPM_P2
2022/10/06 00:03:12;;;;;;;0.00;0.00;;;;;;;15.50;65.30;98647.81;8479684;28;20279;-73
2022/10/06 00:07:15;;;;;;;0.00;0.00;;;;;;;15.48;65.25;98654.91;8479698;28;20227;-73
2022/10/06 00:11:18;;;;;;;0.00;0.00;;;;;;;15.50;65.07;98653.03;8479851;28;20230;-73
2022/10/06 00:15:22;;;;;;;0.00;0.00;;;;;;;15.40;65.18;98655.31;8480205;28;20242;-73
2022/10/06 00:19:26;;;;;;;0.00;0.00;;;;;;;15.40;64.80;98664.00;8479758;28;20236;-73
2022/10/06 00:23:29;;;;;;;0.00;0.00;;;;;;;15.42;64.76;98664.75;8479072;28;20270;-72
2022/10/06 00:27:33;;;;;;;0.00;0.00;;;;;;;15.41;65.04;98665.66;8479218;28;20229;-72
2022/10/06 00:31:36;;;;;;;0.10;0.10;;;;;;;15.37;64.58;98671.16;8479522;28;20249;-73
2022/10/06 00:35:42;;;;;;;0.10;0.10;;;;;;;15.35;64.61;98675.59;8479221;28;20282;-72
2022/10/06 00:39:45;;;;;;;0.00;0.00;;;;;;;15.29;64.65;98676.75;8479371;28;20267;-73
2022/10/06 00:43:50;;;;;;;0.00;0.00;;;;;;;15.27;64.59;98681.22;8479395;28;20236;-72
2022/10/06 00:47:53;;;;;;;0.10;0.10;;;;;;;15.23;64.95;98683.16;8479310;28;20548;-72
2022/10/06 00:52:00;;;;;;;0.10;0.10;;;;;;;15.18;65.23;98694.75;8479000;28;20229;-72
2022/10/06 00:56:03;;;;;;;0.00;0.00;;;;;;;15.22;65.11;98699.72;8479336;28;20229;-71
2022/10/06 01:00:08;;;;;;;0.00;0.00;;;;;;;15.26;65.10;98689.97;8479195;28;20229;-73
2022/10/06 01:04:12;;;;;;;0.10;0.10;;;;;;;15.19;65.75;98699.03;8479449;28;20423;-73
2022/10/06 01:08:16;;;;;;;0.00;0.00;;;;;;;15.27;64.89;98691.66;8478686;28;20225;-73
2022/10/06 01:12:20;;;;;;;0.03;0.03;;;;;;;15.09;65.39;98690.00;8479479;28;20420;-73
2022/10/06 01:16:25;;;;;;;0.00;0.00;;;;;;;15.01;65.61;98693.81;8485445;28;20532;-73
2022/10/06 01:20:28;;;;;;;0.10;0.10;;;;;;;15.06;65.11;98691.00;8484470;27;20237;-72
2022/10/06 01:24:33;;;;;;;0.00;0.00;;;;;;;15.13;64.44;98694.97;8484764;28;20229;-72
2022/10/06 01:28:36;;;;;;;0.00;0.00;;;;;;;15.08;64.78;98703.94;8484671;27;20237;-73
2022/10/06 01:32:39;;;;;;;0.00;0.00;;;;;;;15.09;64.88;98706.47;8484501;28;20243;-73
2022/10/06 01:36:41;;;;;;;0.10;0.10;;;;;;;15.00;65.04;98714.75;8484761;28;20225;-73
2022/10/06 01:40:46;;;;;;;0.00;0.00;;;;;;;15.01;64.69;98719.06;8484340;28;20249;-73
2022/10/06 01:44:48;;;;;;;0.00;0.00;;;;;;;14.95;64.93;98715.00;8484313;28;20229;-73
2022/10/06 01:48:51;;;;;;;0.00;0.00;;;;;;;14.98;64.83;98719.22;8484300;27;20562;-73
2022/10/06 01:52:56;;;;;;;0.00;0.00;;;;;;;15.03;64.54;98715.47;8483971;28;20228;-73
2022/10/06 01:57:00;;;;;;;0.10;0.10;;;;;;;14.92;65.13;98719.53;8483821;27;20221;-72
2022/10/06 02:01:05;;;;;;;0.00;0.00;;;;;;;14.97;64.97;98718.38;8483841;28;20225;-72
2022/10/06 02:05:09;;;;;;;0.00;0.00;;;;;;;14.96;64.21;98724.50;8483294;28;20248;-72
2022/10/06 02:09:12;;;;;;;0.00;0.00;;;;;;;14.95;64.29;98722.00;8483395;28;20256;-72
2022/10/06 02:13:16;;;;;;;0.00;0.00;;;;;;;14.93;63.88;98724.69;8483436;28;20278;-72
2022/10/06 02:17:19;;;;;;;0.00;0.00;;;;;;;14.89;64.09;98728.38;8483360;28;20543;-72
2022/10/06 02:21:22;;;;;;;0.00;0.00;;;;;;;14.83;64.22;98723.44;8483123;28;20263;-72
2022/10/06 02:25:26;;;;;;;0.10;0.10;;;;;;;14.86;64.09;98723.28;8482707;28;20241;-73
2022/10/06 02:29:30;;;;;;;0.00;0.00;;;;;;;14.79;64.03;98712.34;8516333;27;20276;-72
2022/10/06 02:33:33;;;;;;;0.10;0.10;;;;;;;14.77;64.03;98723.75;8516472;27;20492;-72
2022/10/06 02:37:36;;;;;;;0.10;0.10;;;;;;;14.82;64.03;98722.59;8516357;27;20232;-72
2022/10/06 02:41:39;;;;;;;0.00;0.00;;;;;;;14.81;63.93;98723.53;8516237;27;20232;-72
2022/10/06 02:45:43;;;;;;;0.00;0.00;;;;;;;14.79;63.78;98729.72;8516259;27;20244;-72
2022/10/06 02:49:46;;;;;;;0.00;0.00;;;;;;;14.85;63.90;98732.88;8515964;27;20471;-72
2022/10/06 02:53:49;;;;;;;0.00;0.00;;;;;;;14.92;64.19;98732.56;8516282;27;20269;-72
2022/10/06 02:57:53;;;;;;;0.00;0.00;;;;;;;14.96;64.35;98740.16;8516779;27;20224;-72
2022/10/06 03:01:57;;;;;;;0.00;0.00;;;;;;;15.07;64.27;98742.22;8516709;27;20248;-72
2022/10/06 03:06:01;;;;;;;0.00;0.00;;;;;;;15.23;63.82;98752.72;8516212;27;20288;-72
2022/10/06 03:10:04;;;;;;;0.07;0.07;;;;;;;15.24;63.83;98764.88;8516067;27;20228;-72
2022/10/06 03:14:07;;;;;;;0.00;0.00;;;;;;;15.23;64.00;98766.63;8516332;27;20454;-72
2022/10/06 03:18:11;;;;;;;0.00;0.00;;;;;;;15.27;63.99;98784.72;8516478;27;20277;-72
2022/10/06 03:22:14;;;;;;;0.00;0.00;;;;;;;15.16;64.39;98793.13;8516113;27;20266;-73
2022/10/06 03:26:19;;;;;;;0.10;0.10;;;;;;;15.15;64.01;98801.84;8515942;27;20228;-73
2022/10/06 03:30:21;;;;;;;0.00;0.00;;;;;;;15.10;64.18;98796.88;8515792;27;20240;-72
2022/10/06 03:34:26;;;;;;;0.00;0.00;;;;;;;15.08;64.25;98806.53;8515653;27;20224;-72
2022/10/06 03:38:31;;;;;;;0.00;0.00;;;;;;;14.99;64.39;98810.44;8480631;28;20302;-72
2022/10/06 03:42:34;;;;;;;0.00;0.00;;;;;;;15.05;64.25;98820.56;8481595;28;20237;-72
2022/10/06 03:46:36;;;;;;;0.00;0.00;;;;;;;15.08;64.82;98818.72;8481345;28;20233;-72
2022/10/06 03:50:42;;;;;;;0.00;0.00;;;;;;;15.06;65.07;98824.03;8481502;28;20532;-72
2022/10/06 03:54:45;;;;;;;0.00;0.00;;;;;;;15.07;64.95;98830.94;8481139;28;20244;-73
2022/10/06 03:58:50;;;;;;;0.00;0.00;;;;;;;15.12;64.74;98828.94;8481002;28;20228;-72
2022/10/06 04:02:53;;;;;;;0.00;0.00;;;;;;;15.07;64.90;98832.69;8481206;28;20251;-72
2022/10/06 04:06:57;;;;;;;0.00;0.00;;;;;;;14.97;65.08;98837.53;8480857;28;20249;-72
2022/10/06 04:11:06;;;;;;;0.10;0.10;;;;;;;14.92;64.80;98831.69;8482032;28;20290;-73
2022/10/06 04:15:10;;;;;;;0.00;0.00;;;;;;;14.87;65.12;98839.72;8480807;28;20555;-72
2022/10/06 04:19:14;;;;;;;0.10;0.10;;;;;;;14.82;64.41;98852.97;8480646;28;20233;-73
2022/10/06 04:23:19;;;;;;;0.10;0.10;;;;;;;14.87;64.55;98855.38;8480858;28;20232;-73
2022/10/06 04:27:28;;;;;;;0.00;0.00;;;;;;;14.79;65.10;98850.53;8480717;28;20237;-73
2022/10/06 04:31:33;;;;;;;0.00;0.00;;;;;;;14.81;64.99;98861.72;8479922;28;20241;-71
2022/10/06 04:35:36;;;;;;;0.00;0.00;;;;;;;14.83;64.95;98867.72;8480374;28;20548;-73
2022/10/06 04:39:40;;;;;;;0.00;0.00;;;;;;;14.90;64.83;98875.25;8480377;28;20233;-72
2022/10/06 04:43:45;;;;;;;0.00;0.00;;;;;;;14.82;64.74;98884.25;8480379;28;20305;-73
2022/10/06 04:47:48;;;;;;;0.00;0.00;;;;;;;14.86;64.90;98884.97;8481891;28;20287;-73
2022/10/06 04:51:51;;;;;;;0.00;0.00;;;;;;;14.85;65.11;98891.94;8486713;28;20225;-73
2022/10/06 04:56:04;;;;;;;0.00;0.00;;;;;;;14.91;65.06;98898.66;8486953;28;20217;-74
2022/10/06 05:00:25;;;;;;;0.00;0.00;;;;;;;14.83;65.11;98904.22;8486448;28;20229;-73
2022/10/06 05:04:28;;;;;;;0.00;0.00;;;;;;;14.90;64.99;98907.38;8485989;28;20232;-73
2022/10/06 05:08:31;;;;;;;0.00;0.00;;;;;;;14.74;65.77;98919.44;8484930;28;20234;-73
2022/10/06 05:12:36;;;;;;;0.10;0.10;;;;;;;14.94;65.38;98914.13;8486020;28;20257;-73
2022/10/06 05:16:39;;;;;;;0.10;0.10;;;;;;;14.94;65.78;98918.50;8485992;28;20410;-73
2022/10/06 05:20:41;;;;;;;0.00;0.00;;;;;;;14.86;65.88;98921.47;8486019;28;20253;-73
2022/10/06 05:24:44;;;;;;;0.00;0.00;;;;;;;14.88;65.72;98932.69;8485579;28;20233;-73
2022/10/06 05:28:49;;;;;;;0.00;0.00;;;;;;;14.85;65.76;98935.44;8485261;28;20443;-73
2022/10/06 05:32:52;;;;;;;0.10;0.10;;;;;;;14.91;65.84;98949.94;8485715;28;20229;-73
2022/10/06 05:36:55;;;;;;;0.00;0.00;;;;;;;14.87;65.83;98949.25;8485973;28;20221;-73
2022/10/06 05:41:01;;;;;;;0.00;0.00;;;;;;;14.91;65.36;98953.41;8485351;28;20237;-73
2022/10/06 05:45:06;;;;;;;0.00;0.00;;;;;;;14.91;65.86;98957.75;8485279;28;20221;-73
2022/10/06 05:49:11;;;;;;;0.00;0.00;;;;;;;14.95;65.96;98967.16;8485282;28;20236;-73
2022/10/06 05:53:14;;;;;;;0.00;0.00;;;;;;;15.03;66.21;98968.47;8485137;28;20230;-73
2022/10/06 05:57:17;;;;;;;0.00;0.00;;;;;;;15.10;66.31;98974.25;8484995;28;20225;-72
2022/10/06 06:01:22;;;;;;;0.00;0.00;;;;;;;15.11;66.11;98986.38;8484396;28;20236;-72
2022/10/06 06:05:25;;;;;;;0.07;0.07;;;;;;;15.19;66.61;98996.44;8484384;28;20245;-72
2022/10/06 06:09:27;;;;;;;0.00;0.00;;;;;;;15.27;66.87;99007.41;8483913;28;20359;-72
2022/10/06 06:13:30;;;;;;;0.10;0.10;;;;;;;15.35;68.61;99013.09;8484407;27;20233;-73
2022/10/06 06:17:35;;;;;;;0.00;0.00;;;;;;;15.51;69.58;99017.59;8484387;28;20237;-73
2022/10/06 06:21:37;;;;;;;0.00;0.00;;;;;;;15.63;69.74;99028.28;8484210;28;20257;-74
2022/10/06 06:25:43;;;;;;;0.10;0.10;;;;;;;15.67;70.97;99039.44;8484263;28;20229;-72
2022/10/06 06:29:45;;;;;;;0.00;0.00;;;;;;;15.70;71.52;99052.34;8484019;28;20233;-74
2022/10/06 06:33:51;;;;;;;0.00;0.00;;;;;;;15.82;72.24;99063.97;8483757;28;20245;-74
2022/10/06 06:37:54;;;;;;;0.00;0.00;;;;;;;15.73;73.95;99065.28;8483879;27;20226;-73
2022/10/06 06:41:57;;;;;;;0.00;0.00;;;;;;;15.80;74.71;99071.91;8483795;28;20225;-73
2022/10/06 06:46:02;;;;;;;0.00;0.00;;;;;;;15.95;74.35;99093.81;8483396;27;20508;-73
2022/10/06 06:50:09;;;;;;;0.00;0.00;;;;;;;15.95;74.10;99104.25;8483343;28;20290;-73
2022/10/06 06:54:12;;;;;;;0.00;0.00;;;;;;;15.95;73.86;99098.19;8483271;27;20229;-74
2022/10/06 06:58:15;;;;;;;0.00;0.00;;;;;;;16.00;73.81;99104.06;8483209;28;20236;-73
2022/10/06 07:02:17;;;;;;;0.00;0.00;;;;;;;16.05;73.94;99127.34;8482712;28;20397;-72
2022/10/06 07:06:22;;;;;;;0.00;0.00;;;;;;;16.06;73.73;99122.03;8482856;27;20272;-72
2022/10/06 07:10:34;;;;;;;0.00;0.00;;;;;;;16.14;73.82;99122.50;8481420;28;20274;-73
2022/10/06 07:25:05;;;;;;;0.00;0.00;;;;;;;16.15;73.01;99134.66;8482203;28;20237;-72
2022/10/06 07:27:57;;;;;;;0.00;0.00;;;;;;;16.19;72.81;99162.34;8433155;28;20512;-73
2022/10/06 07:31:59;;;;;;;0.00;0.00;;;;;;;16.27;72.29;99172.41;8481714;28;20235;-73
2022/10/06 07:36:02;;;;;;;0.00;0.00;;;;;;;16.22;72.19;99180.50;8481753;28;20233;-73
2022/10/06 07:40:08;;;;;;;0.03;0.03;;;;;;;16.32;71.86;99190.50;8481578;28;20228;-73
2022/10/06 07:44:11;;;;;;;0.00;0.00;;;;;;;16.35;71.38;99185.09;8481905;28;20225;-73
2022/10/06 07:48:16;;;;;;;0.00;0.00;;;;;;;16.38;71.62;99179.75;8481493;28;20236;-74
2022/10/06 07:52:19;;;;;;;0.00;0.00;;;;;;;16.36;70.15;99197.28;8481267;28;20240;-73
2022/10/06 07:56:24;;;;;;;0.00;0.00;;;;;;;16.39;69.77;99197.97;8481348;28;20225;-73
2022/10/06 08:00:27;;;;;;;0.00;0.00;;;;;;;16.46;70.11;99201.13;8481037;28;20225;-73
2022/10/06 08:04:30;;;;;;;0.00;0.00;;;;;;;17.01;69.17;99205.41;8481220;28;20523;-74
2022/10/06 08:08:35;;;;;;;0.00;0.00;;;;;;;17.55;67.48;99202.59;8479897;28;20256;-74
2022/10/06 08:12:39;;;;;;;0.00;0.00;;;;;;;17.65;66.30;99214.28;8481076;28;20234;-74
2022/10/06 08:16:42;;;;;;;0.00;0.00;;;;;;;17.97;64.59;99223.06;8481091;28;20236;-73
2022/10/06 08:20:45;;;;;;;0.00;0.00;;;;;;;17.98;63.22;99229.97;8481178;28;20424;-73
2022/10/06 08:24:48;;;;;;;0.00;0.00;;;;;;;17.55;62.48;99236.66;8487600;27;20229;-73
2022/10/06 08:29:10;;;;;;;0.00;0.00;;;;;;;17.44;62.77;99247.72;8488170;28;20302;-74
2022/10/06 08:33:13;;;;;;;0.00;0.00;;;;;;;17.32;63.49;99253.56;8487721;28;20236;-74
2022/10/06 08:37:15;;;;;;;0.00;0.00;;;;;;;17.52;63.67;99253.38;8487902;27;20225;-74
2022/10/06 08:41:23;;;;;;;0.00;0.00;;;;;;;17.52;62.51;99252.53;8487766;27;20554;-73
2022/10/06 08:45:31;;;;;;;0.10;0.10;;;;;;;18.15;61.78;99257.06;8521056;27;20281;-72
2022/10/06 08:49:43;;;;;;;0.00;0.00;;;;;;;17.84;61.43;99258.72;8521345;27;20289;-74
2022/10/06 08:53:50;;;;;;;0.00;0.00;;;;;;;17.81;60.45;99258.00;8521701;27;20390;-74
2022/10/06 08:58:04;;;;;;;0.00;0.00;;;;;;;18.17;60.34;99256.03;8520937;27;20228;-73
2022/10/06 09:02:17;;;;;;;0.00;0.00;;;;;;;18.31;58.82;99267.53;8519509;27;20246;-73
2022/10/06 09:06:36;;;;;;;0.00;0.00;;;;;;;18.61;58.66;99272.00;8519180;27;20262;-73
2022/10/06 09:10:43;;;;;;;0.00;0.00;;;;;;;19.58;56.09;99269.00;8519661;27;20236;-75
2022/10/06 09:14:49;;;;;;;0.00;0.00;;;;;;;20.79;51.48;99274.56;8519425;27;20512;-74
2022/10/06 09:18:57;;;;;;;0.00;0.00;;;;;;;21.37;49.84;99282.13;8518934;27;20227;-74
2022/10/06 09:23:15;;;;;;;0.00;0.00;;;;;;;21.89;48.76;99282.97;8519027;27;20531;-73
2022/10/06 09:27:21;;;;;;;0.00;0.00;;;;;;;22.27;47.12;99282.91;8518925;27;20571;-74
2022/10/06 09:31:26;;;;;;;0.00;0.00;;;;;;;22.90;45.17;99286.22;8518512;27;20539;-74
2022/10/06 09:35:31;;;;;;;0.00;0.00;;;;;;;23.41;44.47;99283.28;8517024;27;20233;-75
2022/10/06 09:39:36;;;;;;;0.00;0.00;;;;;;;23.74;44.16;99286.09;8517624;27;20229;-73
2022/10/06 09:43:39;;;;;;;0.00;0.00;;;;;;;23.84;43.11;99292.38;8517695;27;20234;-74
2022/10/06 09:47:44;;;;;;;0.00;0.00;;;;;;;23.85;42.78;99285.28;8517895;27;20241;-74
2022/10/06 09:52:03;;;;;;;0.00;0.00;;;;;;;23.94;41.76;99282.75;8518533;27;20224;-74
2022/10/06 09:56:12;;;;;;;0.00;0.00;;;;;;;23.58;42.97;99299.66;8518061;27;20225;-75
2022/10/06 10:00:28;;;;;;;0.00;0.00;;;;;;;23.97;42.04;99298.41;8518006;27;20303;-74
2022/10/06 10:04:34;;;;;;;0.00;0.00;;;;;;;22.24;44.63;99305.06;8483997;27;20241;-73
2022/10/06 10:08:38;;;;;;;0.00;0.00;;;;;;;21.97;45.38;99301.72;8483959;27;20246;-73
2022/10/06 10:12:49;;;;;;;0.00;0.00;;;;;;;21.90;47.01;99311.06;8483947;27;20519;-74
2022/10/06 10:16:52;;;;;;;0.10;0.00;;;;;;;21.31;47.23;99308.91;8483518;28;20476;-74
2022/10/06 10:20:57;;;;;;;0.00;0.00;;;;;;;22.05;45.50;99312.59;8482862;28;20399;-74
2022/10/06 10:25:08;;;;;;;0.00;0.00;;;;;;;21.30;47.31;99302.75;8482981;28;20241;-74
2022/10/06 10:29:34;;;;;;;0.00;0.00;;;;;;;21.16;46.86;99308.13;8482743;28;20559;-74
2022/10/06 10:33:41;;;;;;;0.00;0.00;;;;;;;20.96;48.19;99320.84;8482482;28;20240;-74
2022/10/06 10:38:07;;;;;;;0.00;0.00;;;;;;;22.13;45.78;99312.91;8482550;27;20381;-74
2022/10/06 10:42:21;;;;;;;0.00;0.00;;;;;;;22.80;43.20;99309.84;8482149;28;20233;-74
2022/10/06 10:46:29;;;;;;;0.00;0.00;;;;;;;23.17;42.72;99312.44;8480874;28;20522;-74
2022/10/06 10:50:34;;;;;;;0.00;0.00;;;;;;;22.99;41.50;99304.03;8481790;28;20221;-76
2022/10/06 10:54:41;;;;;;;0.00;0.00;;;;;;;22.47;42.64;99307.88;8481757;28;20244;-75
2022/10/06 10:58:48;;;;;;;0.00;0.00;;;;;;;22.09;43.50;99315.88;8482526;27;20415;-76
2022/10/06 11:02:52;;;;;;;0.00;0.00;;;;;;;22.78;41.41;99321.50;8482913;28;20500;-76
2022/10/06 11:07:12;;;;;;;0.00;0.00;;;;;;;22.51;42.70;99316.44;8480957;28;20292;-76
2022/10/06 11:11:20;;;;;;;0.00;0.00;;;;;;;22.80;41.07;99322.22;8480769;28;20525;-77
2022/10/06 11:15:35;;;;;;;0.00;0.00;;;;;;;23.21;40.53;99324.47;8481424;28;20234;-76
2022/10/06 11:19:45;;;;;;;0.00;0.00;;;;;;;23.47;40.85;99316.34;8514475;27;20521;-75
2022/10/06 11:23:52;;;;;;;0.00;0.00;;;;;;;23.51;39.24;99322.25;8515019;27;20247;-75
2022/10/06 11:28:01;;;;;;;0.00;0.00;;;;;;;22.29;39.28;99317.13;8515285;27;20226;-76
2022/10/06 11:32:17;;;;;;;0.00;0.00;;;;;;;22.10;40.29;99315.75;8514962;27;20399;-77
2022/10/06 11:36:30;;;;;;;0.00;0.00;;;;;;;22.65;39.12;99311.81;8514480;27;20235;-77
2022/10/06 11:40:48;;;;;;;0.00;0.00;;;;;;;22.94;39.26;99315.91;8514285;27;20236;-79
2022/10/06 11:44:55;;;;;;;0.00;0.00;;;;;;;22.72;39.53;99317.50;8514835;27;20412;-75
2022/10/06 11:49:38;;;;;;;0.00;0.00;;;;;;;22.93;40.01;99315.06;8515039;27;20288;-72
2022/10/06 11:53:42;;;;;;;0.00;0.00;;;;;;;23.00;39.56;99307.56;8509203;27;20236;-76
2022/10/06 11:58:18;;;;;;;0.00;0.00;;;;;;;23.41;40.28;99303.59;8514199;27;20237;-73
2022/10/06 12:02:42;;;;;;;0.00;0.00;;;;;;;22.42;42.10;99297.66;8409407;28;20292;-76
2022/10/06 12:07:02;;;;;;;0.00;0.00;;;;;;;21.60;42.36;99291.97;8466079;27;20246;-76
2022/10/06 12:11:41;;;;;;;0.00;0.00;;;;;;;21.56;46.47;99293.13;8514317;27;20225;-76
2022/10/06 12:16:12;;;;;;;0.00;0.00;;;;;;;22.11;43.63;99293.69;8514157;28;20229;-77
2022/10/06 12:20:47;;;;;;;0.00;0.00;;;;;;;22.58;40.74;99286.84;8513751;28;20300;-77
2022/10/06 12:24:56;;;;;;;0.00;0.00;;;;;;;22.89;38.96;99281.94;8514157;28;20225;-76
2022/10/06 12:29:04;;;;;;;0.00;0.00;;;;;;;22.96;39.34;99285.81;8514355;28;20494;-76
2022/10/06 12:33:15;;;;;;;0.00;0.00;;;;;;;22.16;41.18;99278.41;8513297;28;20390;-77
2022/10/06 12:37:42;;;;;;;0.00;0.00;;;;;;;22.64;43.80;99277.63;8513790;27;20225;-75
2022/10/06 12:41:57;;;;;;;0.00;0.00;;;;;;;22.10;45.38;99273.53;8513793;28;20251;-76
2022/10/06 12:46:06;;;;;;;0.00;0.00;;;;;;;22.71;44.12;99273.56;8513398;28;20236;-76
2022/10/06 12:50:13;;;;;;;0.00;0.00;;;;;;;23.17;40.38;99266.66;8513625;28;20245;-75
2022/10/06 12:54:20;;;;;;;0.00;0.00;;;;;;;23.31;37.50;99266.47;8513416;28;20229;-75
2022/10/06 12:58:27;;;;;;;0.00;0.00;;;;;;;23.32;36.56;99265.50;8513927;28;20229;-75
2022/10/06 13:02:31;;;;;;;0.00;0.00;;;;;;;23.59;37.22;99262.53;8512718;28;20323;-75
2022/10/06 13:06:34;;;;;;;0.00;0.00;;;;;;;23.69;35.84;99272.41;8513191;27;20232;-76
2022/10/06 13:10:37;;;;;;;0.00;0.00;;;;;;;23.91;36.38;99272.44;8517311;27;20266;-77
2022/10/06 13:14:40;;;;;;;0.00;0.00;;;;;;;23.79;34.83;99270.75;8519351;27;20238;-75
2022/10/06 13:18:44;;;;;;;0.00;0.00;;;;;;;23.87;34.92;99268.31;8519288;27;20520;-76
2022/10/06 13:22:55;;;;;;;0.00;0.00;;;;;;;23.79;34.55;99268.94;8518972;27;20222;-76
2022/10/06 13:26:58;;;;;;;0.00;0.00;;;;;;;23.78;33.89;99259.31;8519361;27;20219;-75
2022/10/06 13:31:02;;;;;;;0.00;0.00;;;;;;;24.02;33.59;99253.03;8518736;27;20227;-75
2022/10/06 13:35:11;;;;;;;0.00;0.00;;;;;;;23.92;36.19;99257.41;8518951;27;20571;-76
2022/10/06 13:39:15;;;;;;;0.00;0.00;;;;;;;23.98;34.26;99252.44;8518912;27;20227;-76
2022/10/06 13:43:19;;;;;;;0.00;0.00;;;;;;;24.24;33.71;99253.97;8518551;27;20432;-77
2022/10/06 13:47:24;;;;;;;0.00;0.00;;;;;;;24.14;33.25;99261.81;8517185;27;20298;-75
2022/10/06 13:51:29;;;;;;;0.00;0.00;;;;;;;24.22;34.34;99261.19;8517946;27;20237;-74
2022/10/06 13:55:35;;;;;;;0.00;0.00;;;;;;;24.11;32.51;99257.59;8518079;27;20238;-75
2022/10/06 13:59:38;;;;;;;0.00;0.00;;;;;;;24.08;31.71;99252.53;8517950;27;20238;-75
2022/10/06 14:03:41;;;;;;;0.00;0.00;;;;;;;23.90;33.14;99261.97;8518122;27;20247;-75
2022/10/06 14:07:46;;;;;;;0.00;0.00;;;;;;;24.13;31.86;99254.84;8517851;27;20235;-76
2022/10/06 14:11:48;;;;;;;0.00;0.00;;;;;;;23.86;32.49;99258.72;8517518;27;20382;-76
2022/10/06 14:15:53;;;;;;;0.00;0.00;;;;;;;24.10;32.68;99261.19;8517905;27;20230;-76
2022/10/06 14:19:56;;;;;;;0.00;0.00;;;;;;;23.98;31.83;99252.44;8517642;27;20443;-76
2022/10/06 14:24:01;;;;;;;0.00;0.00;;;;;;;24.02;33.00;99257.50;8516652;27;20224;-75
2022/10/06 14:28:10;;;;;;;0.00;0.00;;;;;;;23.93;32.55;99259.06;8517226;27;20228;-75
2022/10/06 14:32:15;;;;;;;0.00;0.00;;;;;;;23.90;31.42;99260.16;8517002;27;20310;-75
2022/10/06 14:36:21;;;;;;;0.00;0.00;;;;;;;23.53;31.13;99257.72;8517191;27;20226;-75
2022/10/06 14:40:25;;;;;;;0.00;0.00;;;;;;;23.50;32.13;99257.97;8516884;27;20301;-76
2022/10/06 14:44:28;;;;;;;0.00;0.00;;;;;;;23.49;32.98;99255.44;8516323;27;20514;-75
2022/10/06 14:48:30;;;;;;;0.00;0.00;;;;;;;23.58;32.72;99254.72;8516924;27;20279;-74
2022/10/06 14:52:33;;;;;;;0.00;0.00;;;;;;;23.40;30.96;99267.56;8516632;27;20241;-74
2022/10/06 14:56:38;;;;;;;0.00;0.00;;;;;;;23.37;30.97;99252.78;8516366;27;20233;-74
2022/10/06 15:00:43;;;;;;;0.00;0.00;;;;;;;23.22;31.19;99252.13;8516428;27;20225;-75
2022/10/06 15:04:45;;;;;;;0.00;0.00;;;;;;;23.03;32.34;99251.84;8516247;27;20308;-75
2022/10/06 15:08:51;;;;;;;0.00;0.00;;;;;;;22.79;32.94;99255.38;8515786;27;20544;-75
2022/10/06 15:12:55;;;;;;;0.00;0.00;;;;;;;22.55;33.51;99255.38;8515786;27;20237;-76
2022/10/06 15:16:59;;;;;;;0.00;0.00;;;;;;;22.25;34.39;99247.88;8515900;27;20228;-75
2022/10/06 15:21:02;;;;;;;0.00;0.00;;;;;;;21.95;35.58;99241.22;8515823;27;20225;-75
2022/10/06 15:25:06;;;;;;;0.00;0.00;;;;;;;21.62;35.82;99247.03;8515393;27;20402;-75
2022/10/06 15:29:09;;;;;;;0.00;0.00;;;;;;;21.48;36.42;99250.66;8515528;27;20223;-74
2022/10/06 15:33:12;;;;;;;0.00;0.00;;;;;;;21.25;37.95;99253.03;8514793;27;20248;-72
2022/10/06 15:37:15;;;;;;;0.00;0.00;;;;;;;20.98;36.92;99247.84;8515297;27;20232;-75
2022/10/06 15:41:18;;;;;;;0.00;0.00;;;;;;;20.91;38.38;99243.94;8515150;27;20495;-76
2022/10/06 15:45:23;;;;;;;0.00;0.00;;;;;;;20.75;38.75;99246.72;8514965;27;20232;-74
2022/10/06 15:49:28;;;;;;;0.00;0.00;;;;;;;20.55;39.22;99245.38;8514238;27;20228;-73
2022/10/06 15:53:31;;;;;;;0.00;0.00;;;;;;;20.43;39.70;99243.56;8514069;27;20233;-73
2022/10/06 15:57:34;;;;;;;0.00;0.00;;;;;;;20.24;41.14;99250.00;8513872;27;20258;-75
2022/10/06 16:01:42;;;;;;;0.00;0.00;;;;;;;20.09;42.24;99243.91;8513674;27;20232;-74
2022/10/06 16:05:49;;;;;;;0.00;0.00;;;;;;;20.02;41.90;99244.41;8513754;27;20269;-77
2022/10/06 16:09:53;;;;;;;0.00;0.00;;;;;;;19.90;42.66;99244.22;8514485;27;20269;-75
2022/10/06 16:13:55;;;;;;;0.00;0.00;;;;;;;19.71;43.24;99254.16;8514386;28;20410;-75
2022/10/06 16:17:59;;;;;;;0.00;0.00;;;;;;;19.64;47.76;99252.84;8514280;28;20235;-74
2022/10/06 16:22:02;;;;;;;0.00;0.00;;;;;;;19.52;47.73;99246.56;8513680;27;20231;-75
2022/10/06 16:26:05;;;;;;;0.00;0.00;;;;;;;19.30;45.27;99252.25;8513946;28;20231;-75
2022/10/06 16:30:09;;;;;;;0.00;0.00;;;;;;;19.23;46.13;99258.81;8513759;27;20247;-75
2022/10/06 16:34:13;;;;;;;0.00;0.00;;;;;;;19.19;48.59;99263.41;8514049;27;20227;-75
2022/10/06 16:38:16;;;;;;;0.00;0.00;;;;;;;19.06;49.10;99258.03;8513769;28;20227;-74
2022/10/06 16:42:19;;;;;;;0.00;0.00;;;;;;;18.92;48.72;99256.22;8513991;27;20262;-74
2022/10/06 16:46:23;;;;;;;0.00;0.00;;;;;;;18.83;48.32;99256.75;8520028;27;20227;-74
2022/10/06 16:50:27;;;;;;;0.00;0.00;;;;;;;18.66;50.94;99259.47;8519253;27;20506;-72
2022/10/06 16:54:30;;;;;;;0.00;0.00;;;;;;;18.54;50.35;99248.75;8519815;27;20239;-81
2022/10/06 16:58:37;;;;;;;0.00;0.00;;;;;;;18.48;50.16;99262.19;8519232;27;20553;-76
2022/10/06 17:02:40;;;;;;;0.00;0.00;;;;;;;18.28;50.46;99258.06;8519537;27;20231;-77
2022/10/06 17:06:46;;;;;;;0.00;0.00;;;;;;;18.15;50.82;99254.44;8519249;27;20559;-76
2022/10/06 17:11:00;;;;;;;0.00;0.00;;;;;;;18.11;49.44;99258.16;8519268;27;20233;-76
2022/10/06 17:15:03;;;;;;;0.00;0.00;;;;;;;17.94;50.15;99259.06;8518011;27;20420;-76
2022/10/06 17:19:06;;;;;;;0.00;0.00;;;;;;;17.83;51.45;99264.84;8516378;27;20405;-76
2022/10/06 17:23:10;;;;;;;0.00;0.00;;;;;;;17.74;51.24;99270.56;8517366;27;20565;-78
2022/10/06 17:27:13;;;;;;;0.07;0.07;;;;;;;17.49;52.21;99265.78;8517093;27;20248;-78
2022/10/06 17:31:17;;;;;;;0.00;0.00;;;;;;;17.52;52.58;99274.31;8516731;27;20239;-76
2022/10/06 17:35:20;;;;;;;0.00;0.00;;;;;;;17.34;52.52;99270.91;8516671;27;20295;-77
2022/10/06 17:39:24;;;;;;;0.00;0.00;;;;;;;17.34;52.73;99278.75;8516779;27;20228;-78
2022/10/06 17:43:27;;;;;;;0.00;0.00;;;;;;;17.17;53.24;99278.75;8516782;27;20230;-79
2022/10/06 17:47:30;;;;;;;0.00;0.00;;;;;;;17.20;53.42;99286.44;8519725;27;20251;-77
2022/10/06 17:51:36;;;;;;;0.00;0.00;;;;;;;17.93;62.68;99281.81;8519310;27;20405;-75
2022/10/06 17:55:42;;;;;;;0.00;0.00;;;;;;;17.96;60.67;99281.63;8518418;27;20243;-77
2022/10/06 17:59:45;;;;;;;0.00;0.00;;;;;;;17.83;53.45;99277.09;8519243;27;23362;-77
2022/10/06 18:03:48;;;;;;;0.00;0.00;;;;;;;17.26;52.94;99283.53;8519042;27;20236;-75
2022/10/06 18:07:51;;;;;;;0.00;0.00;;;;;;;17.11;53.57;99273.81;8518814;27;20539;-75
2022/10/06 18:11:56;;;;;;;0.00;0.00;;;;;;;16.93;53.53;99279.06;8518511;27;20225;-75
2022/10/06 18:15:59;;;;;;;0.00;0.00;;;;;;;16.76;53.89;99276.41;8518107;27;20255;-75
2022/10/06 18:20:02;;;;;;;0.00;0.00;;;;;;;16.63;54.45;99272.69;8517667;27;20233;-75
2022/10/06 18:24:07;;;;;;;0.00;0.00;;;;;;;16.57;54.20;99279.91;8517763;27;20232;-75
2022/10/06 18:28:11;;;;;;;0.00;0.00;;;;;;;16.44;54.36;99273.56;8517472;27;20236;-74
2022/10/06 18:32:14;;;;;;;0.00;0.00;;;;;;;16.33;54.82;99274.06;8517282;27;20291;-75
2022/10/06 18:36:37;;;;;;;0.00;0.00;;;;;;;16.08;55.40;99287.44;8517014;27;20423;-73
2022/10/06 18:40:40;;;;;;;0.00;0.00;;;;;;;16.26;55.21;99275.28;8517201;27;20513;-74
2022/10/06 18:49:09;;;;;;;0.00;0.00;;;;;;;16.10;54.09;99274.28;8517231;27;20226;-75
2022/10/06 18:53:12;;;;;;;0.00;0.00;;;;;;;16.05;54.36;99276.25;8516930;27;20225;-75
2022/10/06 18:57:15;;;;;;;0.00;0.00;;;;;;;15.90;54.20;99278.69;8516276;27;20239;-74
2022/10/06 19:01:19;;;;;;;0.00;0.00;;;;;;;15.90;54.18;99283.06;8518244;27;20224;-71
2022/10/06 19:05:22;;;;;;;0.00;0.00;;;;;;;15.79;54.23;99284.38;8515364;27;20240;-74
2022/10/06 19:09:25;;;;;;;0.00;0.00;;;;;;;15.73;54.36;99289.88;8480792;27;20233;-71
2022/10/06 19:13:28;;;;;;;0.00;0.00;;;;;;;15.59;55.29;99290.47;8481759;27;20449;-72
2022/10/06 19:17:32;;;;;;;0.00;0.00;;;;;;;15.57;54.62;99294.03;8481567;28;20237;-72
2022/10/06 19:21:36;;;;;;;0.00;0.00;;;;;;;15.56;55.02;99300.19;8481756;28;20225;-72
2022/10/06 19:25:38;;;;;;;0.00;0.00;;;;;;;15.45;55.21;99291.03;8481463;28;20424;-73
2022/10/06 19:29:44;;;;;;;0.00;0.00;;;;;;;15.51;54.66;99295.16;8481116;28;20225;-72
2022/10/06 19:33:49;;;;;;;0.00;0.00;;;;;;;15.42;54.41;99288.59;8481211;27;20530;-73